Time;durP1;ratioP1;P1;durP2;ratioP2;P2;SDS_P1;SDS_P2;PMS_P1;PMS_P2;Temp;Humidity;BMP_temperature;BMP_pressure;BME280_temperature;BME280_humidity;BME280_pressure;Samples;Min_cycle;Max_cycle;Signal;HPM_P1;HPM_P2
2023/08/16 03:57:52;;;;;;;30.83;4.15;;;;;;;22.81;71.34;99740.44;7283592;19;130344;-73
2023/08/16 04:00:18;;;;;;;60.17;5.77;;;;;;;22.76;73.25;99732.19;7172454;19;3106758;-72
2023/08/16 04:02:43;;;;;;;79.32;6.47;;;;;;;22.84;72.88;99742.78;7340062;19;129273;-73
2023/08/16 04:05:11;;;;;;;33.13;4.03;;;;;;;22.92;73.60;99746.31;7343584;19;129970;-70
2023/08/16 04:07:37;;;;;;;67.38;6.55;;;;;;;22.97;73.64;99743.28;7343553;19;129708;-73
2023/08/16 04:10:03;;;;;;;18.17;3.13;;;;;;;23.09;73.49;99752.59;7342550;19;130381;-73
2023/08/16 04:12:29;;;;;;;69.10;6.13;;;;;;;23.17;74.18;99750.91;7346383;19;129864;-74
2023/08/16 04:14:54;;;;;;;25.57;3.17;;;;;;;23.24;73.39;99746.72;7348097;19;130813;-70
2023/08/16 04:17:19;;;;;;;43.77;4.67;;;;;;;23.38;74.19;99748.06;7345456;19;130644;-73
2023/08/16 04:19:45;;;;;;;17.50;2.97;;;;;;;23.49;73.76;99760.13;7347200;19;129234;-70
2023/08/16 04:22:10;;;;;;;29.25;3.30;;;;;;;23.58;72.62;99754.03;7362394;19;129044;-70
2023/08/16 04:24:36;;;;;;;34.67;3.63;;;;;;;23.69;73.60;99757.25;7349661;19;129636;-74
2023/08/16 04:27:01;;;;;;;37.40;3.65;;;;;;;23.79;73.06;99763.25;7346902;19;129041;-72
2023/08/16 04:29:26;;;;;;;56.90;5.23;;;;;;;23.89;72.75;99764.00;7341392;19;129688;-70
2023/08/16 04:31:52;;;;;;;47.17;4.43;;;;;;;24.00;72.59;99763.81;7343933;19;129891;-74
2023/08/16 04:34:17;;;;;;;34.33;3.63;;;;;;;24.10;73.11;99761.09;7345620;19;129985;-70
2023/08/16 04:36:42;;;;;;;42.77;4.03;;;;;;;24.18;72.27;99764.63;7342375;19;130957;-73
2023/08/16 04:39:08;;;;;;;73.90;5.70;;;;;;;24.26;72.21;99762.03;7338786;19;131317;-72
2023/08/16 04:41:34;;;;;;;39.87;4.23;;;;;;;24.31;72.30;99759.78;7340654;19;132652;-73
2023/08/16 04:43:59;;;;;;;23.20;2.73;;;;;;;24.42;71.69;99767.44;7344777;19;129659;-73
2023/08/16 04:46:24;;;;;;;53.40;4.43;;;;;;;24.48;71.08;99765.97;7339785;19;129957;-73
2023/08/16 04:48:50;;;;;;;55.87;4.27;;;;;;;24.43;71.24;99752.47;7342227;19;130984;-74
2023/08/16 04:51:17;;;;;;;31.07;3.20;;;;;;;24.59;70.76;99770.16;7341649;19;132721;-69
2023/08/16 04:53:42;;;;;;;49.63;4.43;;;;;;;24.65;70.96;99777.44;7340530;19;133105;-73
2023/08/16 04:56:08;;;;;;;44.23;4.13;;;;;;;24.70;70.67;99773.41;7340800;19;130398;-74
2023/08/16 04:58:33;;;;;;;50.10;4.13;;;;;;;24.72;70.12;99774.06;7345890;19;129274;-74
2023/08/16 05:00:59;;;;;;;99.73;8.07;;;;;;;24.76;70.01;99775.41;7344070;19;131928;-72
2023/08/16 05:03:24;;;;;;;37.03;3.53;;;;;;;24.79;70.22;99769.00;7342381;19;131878;-72
2023/08/16 05:06:00;;;;;;;104.03;7.97;;;;;;;24.85;70.95;99774.47;7340381;19;130386;-74
2023/08/16 05:08:26;;;;;;;78.07;6.10;;;;;;;24.88;69.59;99783.84;7319583;19;129341;-73
2023/08/16 05:10:51;;;;;;;28.00;2.90;;;;;;;24.92;69.14;99791.28;7313860;19;129947;-73
2023/08/16 05:13:17;;;;;;;47.57;4.43;;;;;;;24.88;68.65;99787.31;7316802;19;130058;-73
2023/08/16 05:15:43;;;;;;;91.03;7.05;;;;;;;24.95;68.86;99795.41;7319207;19;129747;-72
2023/08/16 05:18:09;;;;;;;91.40;7.17;;;;;;;24.99;68.76;99797.56;7321045;19;129844;-39
2023/08/16 05:20:35;;;;;;;27.87;3.17;;;;;;;24.99;69.01;99791.50;7311515;19;129287;-37
2023/08/16 05:23:01;;;;;;;20.75;2.90;;;;;;;24.91;68.79;99778.25;7309436;19;129658;-39
2023/08/16 05:25:26;;;;;;;82.80;6.43;;;;;;;25.02;68.21;99801.69;7303090;19;130584;-38
2023/08/16 05:27:51;;;;;;;38.23;3.50;;;;;;;25.03;68.39;99798.06;7308276;19;129219;-40
2023/08/16 05:30:17;;;;;;;34.67;3.27;;;;;;;25.03;68.31;99798.06;7311985;19;129589;-39
2023/08/16 05:32:42;;;;;;;67.40;5.30;;;;;;;25.03;68.22;99792.81;7308723;19;129898;-37
2023/08/16 05:35:07;;;;;;;99.27;7.93;;;;;;;25.04;68.02;99795.28;7307376;19;130221;-40
2023/08/16 05:37:33;;;;;;;55.23;4.63;;;;;;;25.05;68.06;99796.94;7309260;19;130795;-38
2023/08/16 05:39:58;;;;;;;57.43;4.77;;;;;;;25.06;68.20;99800.38;7308759;19;129403;-39
2023/08/16 05:42:26;;;;;;;29.30;3.03;;;;;;;25.04;67.48;99797.91;7312469;19;130401;-40
2023/08/16 05:44:51;;;;;;;36.83;3.55;;;;;;;25.02;67.75;99797.25;7312314;19;131211;-38
2023/08/16 05:47:17;;;;;;;59.60;5.03;;;;;;;25.04;68.15;99797.91;7310634;19;129340;-39
2023/08/16 05:49:42;;;;;;;53.63;4.57;;;;;;;25.02;67.56;99801.69;7310422;19;129716;-41
2023/08/16 05:52:07;;;;;;;32.20;3.27;;;;;;;25.07;67.66;99809.94;7310548;19;130643;-39
2023/08/16 05:54:34;;;;;;;47.00;3.80;;;;;;;25.09;67.59;99797.47;7311425;19;129629;-39
2023/08/16 05:57:00;;;;;;;58.60;4.72;;;;;;;25.10;67.34;99799.09;7308170;19;129325;-38
2023/08/16 05:59:25;;;;;;;29.50;2.67;;;;;;;25.09;67.90;99798.25;7302789;19;130421;-39
2023/08/16 06:01:51;;;;;;;16.37;2.40;;;;;;;25.09;67.28;99798.25;7299425;19;130002;-41
2023/08/16 06:04:16;;;;;;;90.87;6.90;;;;;;;25.10;67.58;99810.47;7304442;19;130678;-36
2023/08/16 06:06:42;;;;;;;51.83;4.87;;;;;;;25.13;68.42;99802.25;7310465;19;129180;-39
2023/08/16 06:09:07;;;;;;;29.20;3.37;;;;;;;25.15;67.77;99812.59;7313283;19;129948;-40
2023/08/16 06:11:33;;;;;;;37.50;4.17;;;;;;;25.16;67.76;99808.97;7306284;19;130669;-39
2023/08/16 06:14:00;;;;;;;47.35;4.70;;;;;;;25.14;68.00;99806.50;7305751;19;130643;-41
2023/08/16 06:16:26;;;;;;;74.22;6.38;;;;;;;25.13;67.45;99810.13;7304581;19;129520;-39
2023/08/16 06:18:52;;;;;;;33.47;4.17;;;;;;;25.15;68.26;99812.59;7307317;19;129774;-40
2023/08/16 06:21:17;;;;;;;56.47;5.97;;;;;;;25.17;68.11;99810.66;7303692;19;130607;-39
2023/08/16 06:23:43;;;;;;;96.93;8.40;;;;;;;25.18;68.06;99814.91;7307737;19;130181;-39
2023/08/16 06:26:09;;;;;;;35.17;4.17;;;;;;;25.22;68.23;99818.91;7309148;19;129594;-38
2023/08/16 06:28:35;;;;;;;54.90;5.85;;;;;;;25.25;68.17;99819.41;7299779;19;132197;-37
2023/08/16 06:31:01;;;;;;;18.80;3.65;;;;;;;25.24;68.15;99819.53;7308241;19;129529;-39
2023/08/16 06:33:27;;;;;;;76.73;6.47;;;;;;;25.24;68.08;99817.75;7306634;19;130515;-39
2023/08/16 06:35:52;;;;;;;47.97;5.47;;;;;;;25.16;68.45;99801.09;7309460;19;130309;-38
2023/08/16 06:38:18;;;;;;;65.77;6.40;;;;;;;25.25;67.67;99823.84;7307220;19;129873;-39
2023/08/16 06:40:44;;;;;;;32.97;4.20;;;;;;;25.24;68.02;99816.91;7310688;19;129591;-40
2023/08/16 06:43:09;;;;;;;42.27;4.67;;;;;;;25.22;67.50;99813.63;7310518;19;129149;-40
2023/08/16 06:45:35;;;;;;;39.03;4.37;;;;;;;25.18;67.37;99823.66;7310838;19;129976;-39
2023/08/16 06:48:03;;;;;;;31.13;4.13;;;;;;;25.20;68.25;99815.59;7309534;19;130456;-40
2023/08/16 06:50:28;;;;;;;87.93;7.78;;;;;;;25.20;67.59;99812.97;7310053;19;130673;-41
2023/08/16 06:52:54;;;;;;;57.97;5.60;;;;;;;25.26;68.00;99818.41;7311841;19;130312;-40
2023/08/16 06:55:20;;;;;;;28.70;3.70;;;;;;;25.25;67.59;99815.94;7311228;19;129063;-40
2023/08/16 06:57:45;;;;;;;63.63;6.10;;;;;;;25.26;67.86;99826.31;7302504;19;130119;-39
2023/08/16 07:00:11;;;;;;;35.53;4.43;;;;;;;25.26;68.07;99825.47;7307047;19;130517;-41
2023/08/16 07:02:37;;;;;;;64.18;5.88;;;;;;;25.29;68.45;99830.41;7306370;19;129570;-39
2023/08/16 07:05:03;;;;;;;42.50;4.57;;;;;;;25.29;67.35;99833.06;7307418;19;129400;-40
2023/08/16 07:07:31;;;;;;;66.27;6.30;;;;;;;25.32;67.66;99832.75;7304994;19;130262;-40
2023/08/16 07:09:56;;;;;;;148.65;10.98;;;;;;;25.22;67.74;99819.69;7305805;19;131080;-40
2023/08/16 07:12:21;;;;;;;74.00;6.47;;;;;;;25.32;68.03;99840.66;7308323;19;131521;-40
2023/08/16 07:14:49;;;;;;;58.27;5.63;;;;;;;25.32;67.65;99848.56;7306607;19;129935;-41
2023/08/16 07:17:14;;;;;;;29.98;4.10;;;;;;;25.33;67.58;99852.81;7304732;19;130258;-39
2023/08/16 07:19:40;;;;;;;70.70;6.13;;;;;;;25.32;67.90;99851.19;7307685;19;129905;-39
2023/08/16 07:22:05;;;;;;;30.53;4.07;;;;;;;25.23;67.56;99845.06;7309278;19;129833;-39
2023/08/16 07:24:31;;;;;;;96.03;8.20;;;;;;;25.35;67.70;99853.53;7307157;19;130947;-41
2023/08/16 07:26:56;;;;;;;61.40;6.20;;;;;;;25.35;67.04;99856.16;7304390;19;130177;-38
2023/08/16 07:29:22;;;;;;;74.83;6.60;;;;;;;25.36;67.50;99857.81;7305774;19;130322;-41
2023/08/16 07:31:48;;;;;;;33.50;4.43;;;;;;;25.27;67.09;99842.94;7308138;19;129096;-40
2023/08/16 07:34:13;;;;;;;55.00;5.55;;;;;;;25.35;67.06;99856.16;7305871;19;131715;-39
2023/08/16 07:36:39;;;;;;;31.97;4.00;;;;;;;25.34;66.97;99859.72;7304070;19;130642;-41
2023/08/16 07:39:04;;;;;;;133.27;10.07;;;;;;;25.36;66.70;99863.06;7303485;19;130608;-39
2023/08/16 07:41:30;;;;;;;56.63;5.63;;;;;;;25.38;67.13;99875.09;7302666;19;130232;-39
2023/08/16 07:43:55;;;;;;;104.80;8.73;;;;;;;25.40;66.77;99874.94;7304696;19;130349;-39
2023/08/16 07:46:21;;;;;;;60.97;5.83;;;;;;;25.39;67.62;99876.75;7304191;19;129467;-41
2023/08/16 07:48:46;;;;;;;72.83;6.87;;;;;;;25.40;67.08;99877.56;7307117;19;129323;-39
2023/08/16 07:51:11;;;;;;;38.37;4.17;;;;;;;25.41;66.88;99877.41;7307156;19;130000;-40
2023/08/16 07:53:37;;;;;;;59.13;5.57;;;;;;;25.44;66.60;99886.78;7305427;19;130700;-40
2023/08/16 07:56:02;;;;;;;86.23;7.73;;;;;;;25.43;66.90;99890.41;7305933;19;132215;-39
2023/08/16 07:58:27;;;;;;;56.73;5.67;;;;;;;25.43;66.62;99882.53;7300340;19;130765;-40
2023/08/16 08:00:54;;;;;;;79.63;7.20;;;;;;;25.42;67.44;99886.16;7305722;19;130075;-39
2023/08/16 08:03:21;;;;;;;;;;;;;;;25.46;67.99;99888.31;7307227;19;130144;-39
2023/08/16 08:05:46;;;;;;;90.55;7.40;;;;;;;25.45;66.54;99891.91;7306143;19;130181;-39
2023/08/16 08:08:12;;;;;;;86.03;7.40;;;;;;;25.40;66.93;99890.72;7303603;19;130209;-40
2023/08/16 08:10:42;;;;;;;27.67;3.70;;;;;;;25.36;67.61;99887.59;7308444;19;130124;-40
2023/08/16 08:13:08;;;;;;;61.92;6.10;;;;;;;25.34;66.91;99889.50;7305811;19;129271;-41
2023/08/16 08:15:33;;;;;;;60.10;5.77;;;;;;;25.40;67.46;99896.00;7303009;19;131077;-36
2023/08/16 08:17:59;;;;;;;32.30;4.53;;;;;;;25.44;66.96;99892.06;7304909;19;130317;-41
2023/08/16 08:20:24;;;;;;;39.83;5.17;;;;;;;25.36;66.77;99884.13;7306092;19;132241;-40
2023/08/16 08:22:50;;;;;;;35.63;4.27;;;;;;;25.44;66.65;99897.31;7306928;19;130613;-40
2023/08/16 08:25:15;;;;;;;38.20;4.23;;;;;;;25.43;66.57;99896.50;7306805;19;129695;-41
2023/08/16 08:27:40;;;;;;;64.47;6.10;;;;;;;25.40;67.13;99888.09;7304223;19;130622;-39
2023/08/16 08:30:08;;;;;;;24.23;3.67;;;;;;;25.34;67.00;99886.03;7307402;19;129833;-41
2023/08/16 08:32:33;;;;;;;48.30;5.38;;;;;;;25.34;67.29;99891.31;7306247;19;129320;-40
2023/08/16 08:34:59;;;;;;;62.87;5.87;;;;;;;25.40;67.33;99890.72;7304585;19;131489;-39
2023/08/16 08:37:24;;;;;;;27.13;3.50;;;;;;;25.32;67.02;99864.34;7299595;19;131540;-40
2023/08/16 08:39:49;;;;;;;29.17;4.17;;;;;;;25.40;67.30;99885.47;7305048;19;129216;-41
2023/08/16 08:42:16;;;;;;;22.00;3.67;;;;;;;25.33;67.43;99876.50;7308155;19;129255;-39
2023/08/16 08:44:43;;;;;;;45.67;5.00;;;;;;;25.41;67.10;99884.47;7311883;19;129509;-40
2023/08/16 08:47:09;;;;;;;37.00;4.78;;;;;;;25.45;66.42;99883.19;7313972;19;130947;-39
2023/08/16 08:49:35;;;;;;;83.10;7.78;;;;;;;25.47;66.67;99881.22;7311742;19;130518;-41
2023/08/16 08:52:04;;;;;;;57.60;5.70;;;;;;;25.47;67.73;99881.22;7311126;19;130128;-40
2023/08/16 08:54:30;;;;;;;73.70;6.72;;;;;;;25.49;66.58;99893.25;7312520;19;131074;-40
2023/08/16 08:56:59;;;;;;;30.33;4.37;;;;;;;25.47;67.23;99891.72;7311198;19;129165;-41
2023/08/16 08:59:26;;;;;;;75.95;7.13;;;;;;;25.49;66.66;99900.31;7308936;19;131369;-40
2023/08/16 09:01:52;;;;;;;63.33;6.13;;;;;;;25.50;66.76;99901.97;7312893;19;129641;-42
2023/08/16 09:04:19;;;;;;;81.90;7.10;;;;;;;25.48;66.81;99902.13;7309471;19;129657;-40
2023/08/16 09:06:46;;;;;;;55.15;6.07;;;;;;;25.47;66.67;99911.00;7310760;19;129883;-40
2023/08/16 09:09:12;;;;;;;25.67;3.78;;;;;;;25.42;66.91;99902.75;7310031;19;129222;-38
2023/08/16 09:11:37;;;;;;;15.00;3.20;;;;;;;25.51;66.79;99912.34;7312065;19;129352;-41
2023/08/16 09:14:04;;;;;;;87.23;7.80;;;;;;;25.50;66.24;99912.50;7305849;19;130398;-40
2023/08/16 09:16:29;;;;;;;38.25;4.85;;;;;;;25.49;67.26;99916.09;7314674;19;129940;-40
2023/08/16 09:18:55;;;;;;;43.40;4.73;;;;;;;25.48;66.20;99914.47;7311907;19;129018;-40
2023/08/16 09:21:24;;;;;;;37.73;4.60;;;;;;;25.49;66.68;99916.09;7312515;19;130153;-40
2023/08/16 09:24:00;;;;;;;63.05;5.65;;;;;;;25.52;67.36;99915.78;7309896;19;129759;-38
2023/08/16 09:26:28;;;;;;;48.05;5.10;;;;;;;25.51;67.17;99914.16;7309829;19;131100;-41
2023/08/16 09:29:02;;;;;;;26.10;3.92;;;;;;;25.53;67.33;99912.19;7312872;19;129110;-40
2023/08/16 09:31:31;;;;;;;44.72;5.07;;;;;;;25.54;66.95;99919.94;7311685;19;129128;-40
2023/08/16 09:33:58;;;;;;;14.15;3.25;;;;;;;25.54;66.76;99916.47;7312876;19;129093;-42
2023/08/16 09:36:30;;;;;;;82.18;6.60;;;;;;;25.50;67.22;99912.50;7312020;19;131076;-40
2023/08/16 09:39:04;;;;;;;61.20;5.75;;;;;;;25.53;67.58;99907.75;7309861;19;129479;-37
2023/08/16 09:41:31;;;;;;;10.07;3.00;;;;;;;25.54;66.47;99906.75;7311959;19;129485;-40
2023/08/16 09:44:06;;;;;;;51.28;5.53;;;;;;;25.55;67.67;99907.59;7310513;19;129070;-42
2023/08/16 09:46:33;;;;;;;58.10;5.85;;;;;;;25.56;67.07;99909.25;7307894;19;131104;-40
2023/08/16 09:49:03;;;;;;;;;;;;;;;25.49;67.30;99892.41;7311755;19;129376;-39
2023/08/16 09:51:30;;;;;;;49.88;5.55;;;;;;;25.58;66.33;99909.91;7311046;19;129257;-40
2023/08/16 09:53:56;;;;;;;53.30;5.93;;;;;;;25.56;66.89;99902.16;7311154;19;129327;-40
2023/08/16 09:56:26;;;;;;;60.00;6.30;;;;;;;25.57;67.33;99897.72;7308017;19;130950;-38
2023/08/16 09:58:51;;;;;;;38.80;4.60;;;;;;;25.56;66.19;99894.28;7314272;19;129063;-41
2023/08/16 10:01:17;;;;;;;49.20;5.37;;;;;;;25.57;66.66;99902.97;7310212;19;130202;-41
2023/08/16 10:03:46;;;;;;;69.50;6.67;;;;;;;25.57;66.89;99902.97;7310001;19;129974;-40
2023/08/16 10:06:11;;;;;;;41.88;4.75;;;;;;;25.57;67.00;99901.19;7308887;19;130360;-40
2023/08/16 10:08:38;;;;;;;40.60;4.97;;;;;;;25.57;67.07;99900.34;7306660;19;129225;-40
2023/08/16 10:11:04;;;;;;;41.65;4.93;;;;;;;25.55;67.07;99907.59;7306135;19;130125;-38
2023/08/16 10:13:30;;;;;;;44.17;5.40;;;;;;;25.56;66.65;99906.59;7307916;19;129205;-38
2023/08/16 10:15:56;;;;;;;39.83;4.97;;;;;;;25.58;66.55;99899.38;7301073;19;129476;-40
2023/08/16 10:18:23;;;;;;;65.30;6.30;;;;;;;25.57;66.92;99897.72;7307884;19;129236;-40
2023/08/16 10:20:51;;;;;;;38.85;4.60;;;;;;;25.52;66.09;99889.47;7307937;19;129273;-39
2023/08/16 10:23:19;;;;;;;31.48;4.13;;;;;;;25.54;66.76;99892.75;7309716;19;129567;-41
2023/08/16 10:25:48;;;;;;;82.78;7.70;;;;;;;25.52;67.21;99894.72;7301240;19;131468;-40
2023/08/16 10:28:19;;;;;;;27.88;3.92;;;;;;;25.49;67.01;99889.78;7309684;19;129002;-39
2023/08/16 10:30:46;;;;;;;97.10;8.40;;;;;;;25.50;66.10;99886.19;7308825;19;130137;-41
2023/08/16 10:33:17;;;;;;;27.15;3.80;;;;;;;25.47;66.84;99881.22;7311580;19;129879;-40
2023/08/16 10:35:44;;;;;;;56.67;5.88;;;;;;;25.49;66.84;99889.78;7304987;19;130189;-41
2023/08/16 10:38:10;;;;;;;73.90;7.55;;;;;;;25.50;66.04;99883.53;7306079;19;130413;-39
2023/08/16 10:40:35;;;;;;;86.83;7.67;;;;;;;25.51;66.42;99887.81;7306262;19;130096;-40
2023/08/16 10:43:06;;;;;;;33.13;4.40;;;;;;;25.48;66.83;99894.25;7309708;19;130421;-40
2023/08/16 10:45:36;;;;;;;31.42;4.13;;;;;;;25.46;66.65;99885.66;7308666;19;130005;-40
2023/08/16 10:48:14;;;;;;;89.35;8.05;;;;;;;25.48;67.48;99893.41;7301548;19;131264;-41
2023/08/16 10:50:40;;;;;;;55.72;6.25;;;;;;;25.47;66.16;99897.00;7300032;19;132097;-39
2023/08/16 10:53:07;;;;;;;49.00;5.17;;;;;;;25.46;66.89;99890.09;7307863;19;130507;-39
2023/08/16 10:55:34;;;;;;;55.55;5.70;;;;;;;25.38;66.54;99876.91;7308512;19;130685;-39
2023/08/16 10:58:00;;;;;;;62.63;6.35;;;;;;;25.46;66.20;99892.72;7305926;19;130539;-38
2023/08/16 11:00:35;;;;;;;26.37;4.33;;;;;;;25.48;67.19;99885.50;7307072;19;129571;-39
2023/08/16 11:03:04;;;;;;;63.38;6.18;;;;;;;25.44;66.62;99887.63;7306358;19;129919;-40
2023/08/16 11:05:31;;;;;;;68.85;6.60;;;;;;;25.46;66.07;99892.72;7302761;19;129473;-39
2023/08/16 11:08:01;;;;;;;31.63;4.10;;;;;;;25.44;66.66;99886.78;7303426;19;130796;-40
2023/08/16 11:10:34;;;;;;;69.68;6.95;;;;;;;25.45;66.97;99883.19;7308934;19;129095;-41
2023/08/16 11:13:01;;;;;;;41.30;4.55;;;;;;;25.37;66.89;99867.38;7307368;19;129744;-39
2023/08/16 11:15:27;;;;;;;75.93;7.38;;;;;;;25.46;65.80;99879.56;7308471;19;129641;-41
2023/08/16 11:17:52;;;;;;;30.73;4.20;;;;;;;25.49;66.57;99879.25;7306357;19;129724;-40
2023/08/16 11:20:18;;;;;;;85.53;7.90;;;;;;;25.49;67.03;99877.44;7304601;19;128765;-38
2023/08/16 11:22:45;;;;;;;61.38;6.50;;;;;;;25.50;66.57;99873.81;7306634;19;131093;-40
2023/08/16 11:25:11;;;;;;;52.97;5.75;;;;;;;25.51;66.33;99872.03;7303276;19;130478;-41
2023/08/16 11:27:37;;;;;;;70.70;6.90;;;;;;;25.54;66.23;99871.69;7305169;19;130298;-39
2023/08/16 11:30:03;;;;;;;61.72;6.38;;;;;;;25.57;66.33;99876.63;7307929;19;130169;-40
2023/08/16 11:32:36;;;;;;;52.03;5.53;;;;;;;25.56;66.62;99885.53;7308431;19;130930;-41
2023/08/16 11:35:06;;;;;;;62.80;6.15;;;;;;;25.56;66.28;99877.63;7307271;19;130535;-41
2023/08/16 11:37:32;;;;;;;49.80;5.47;;;;;;;25.58;65.63;99883.59;7307548;19;129824;-40
2023/08/16 11:39:59;;;;;;;167.27;12.37;;;;;;;25.58;66.46;99873.03;7303160;19;130181;-40
2023/08/16 11:42:27;;;;;;;126.22;9.20;;;;;;;25.56;66.40;99878.47;7299015;19;130176;-41
2023/08/16 11:44:52;;;;;;;130.80;9.88;;;;;;;25.59;66.04;99872.06;7295883;19;131144;-38
2023/08/16 11:47:17;;;;;;;37.20;4.53;;;;;;;25.52;66.01;99868.41;7302182;19;130130;-41
2023/08/16 11:49:43;;;;;;;46.87;5.23;;;;;;;25.60;66.47;99874.53;7300941;19;131029;-40
2023/08/16 11:52:08;;;;;;;52.77;5.47;;;;;;;25.60;65.86;99871.09;7304478;19;131242;-39
2023/08/16 11:54:34;;;;;;;55.83;6.27;;;;;;;25.62;65.54;99875.19;7301003;19;129217;-39
2023/08/16 11:56:59;;;;;;;52.17;5.63;;;;;;;25.50;66.40;99860.66;7304818;19;129849;-40
2023/08/16 11:59:29;;;;;;;67.90;6.83;;;;;;;25.49;66.17;99858.19;7302541;19;130832;-40
2023/08/16 12:01:55;;;;;;;24.48;4.00;;;;;;;25.59;65.82;99874.69;7304322;19;129913;-40
2023/08/16 12:04:22;;;;;;;68.43;6.67;;;;;;;25.61;65.89;99867.47;7305346;19;129982;-40
2023/08/16 12:06:47;;;;;;;76.85;7.20;;;;;;;25.56;64.86;99861.84;7298978;19;130236;-39
2023/08/16 12:09:17;;;;;;;66.47;6.40;;;;;;;25.52;66.82;99863.13;7298521;19;129502;-40
2023/08/16 12:11:42;;;;;;;98.57;8.18;;;;;;;25.50;65.66;99858.03;7297564;19;131057;-39
2023/08/16 12:14:07;;;;;;;64.20;6.47;;;;;;;25.51;66.42;99851.78;7299734;19;131095;-42
2023/08/16 12:16:33;;;;;;;65.67;6.50;;;;;;;25.45;65.87;99849.78;7299614;19;129364;-37
2023/08/16 12:18:59;;;;;;;89.57;8.07;;;;;;;25.35;66.18;99829.84;7301725;19;130151;-39
2023/08/16 12:21:24;;;;;;;56.27;5.87;;;;;;;25.44;66.53;99847.31;7308643;19;129529;-41
2023/08/16 12:23:50;;;;;;;115.37;9.40;;;;;;;25.42;66.02;99851.94;7307308;19;129616;-36
2023/08/16 12:26:17;;;;;;;139.80;11.13;;;;;;;25.34;66.16;99830.78;7304533;19;132439;-36
2023/08/16 12:28:43;;;;;;;47.03;5.38;;;;;;;25.42;66.29;99846.66;7305964;19;129874;-38
2023/08/16 12:31:10;;;;;;;93.47;8.13;;;;;;;25.40;66.40;99838.09;7306766;19;130170;-40
2023/08/16 12:33:36;;;;;;;82.55;6.93;;;;;;;25.44;66.24;99837.59;7224608;19;129954;-39
2023/08/16 12:36:02;;;;;;;60.50;6.00;;;;;;;25.52;66.54;99839.44;7308400;19;129702;-39
2023/08/16 12:38:27;;;;;;;121.17;9.57;;;;;;;25.61;66.76;99838.50;7299003;19;130241;-37
2023/08/16 12:40:52;;;;;;;155.70;10.80;;;;;;;25.57;66.14;99834.50;7303582;19;131020;-37
2023/08/16 12:43:20;;;;;;;191.90;13.33;;;;;;;25.53;66.06;99844.56;7293102;19;130986;-41
2023/08/16 12:45:46;;;;;;;91.30;8.20;;;;;;;25.54;65.87;99829.56;7295003;19;130761;-40
2023/08/16 12:48:11;;;;;;;52.43;5.33;;;;;;;25.51;65.74;99837.78;7300966;19;130595;-43
2023/08/16 12:50:37;;;;;;;109.03;8.77;;;;;;;25.40;65.97;99827.56;7306600;19;129242;-42
2023/08/16 12:53:03;;;;;;;146.35;11.85;;;;;;;25.53;65.57;99841.94;7302056;19;130091;-39
2023/08/16 12:55:29;;;;;;;95.33;8.23;;;;;;;25.52;65.81;99836.78;7301688;19;130715;-41
2023/08/16 12:57:56;;;;;;;87.80;7.70;;;;;;;25.61;66.03;99841.13;7301885;19;129413;-41
2023/08/16 13:00:22;;;;;;;42.45;5.38;;;;;;;25.67;65.97;99828.13;7303588;19;131919;-41
2023/08/16 13:02:47;;;;;;;139.50;11.53;;;;;;;25.62;65.86;99816.44;7303359;19;130159;-43
2023/08/16 13:05:12;;;;;;;68.73;7.00;;;;;;;25.61;65.56;99804.25;7304838;19;131404;-40
2023/08/16 13:07:38;;;;;;;72.27;6.43;;;;;;;25.70;65.40;99821.75;7305442;19;131339;-40
2023/08/16 13:10:04;;;;;;;84.50;7.60;;;;;;;25.71;65.52;99826.03;7301039;19;129897;-43
2023/08/16 13:12:30;;;;;;;61.58;6.85;;;;;;;25.71;65.89;99818.13;7306539;19;130510;-42
2023/08/16 13:14:56;;;;;;;112.65;9.75;;;;;;;25.64;65.76;99817.09;7302560;19;130264;-40
2023/08/16 13:17:21;;;;;;;162.03;12.50;;;;;;;25.64;65.82;99820.56;7303446;19;130075;-41
2023/08/16 13:19:47;;;;;;;62.90;6.23;;;;;;;25.64;65.04;99811.84;7306955;19;130515;-39
2023/08/16 13:22:13;;;;;;;86.13;8.07;;;;;;;25.62;66.06;99816.44;7305579;19;129598;-41
2023/08/16 13:24:39;;;;;;;77.87;7.00;;;;;;;25.63;65.83;99807.56;7306483;19;129363;-42
2023/08/16 13:27:04;;;;;;;70.93;6.77;;;;;;;25.60;65.23;99810.53;7304754;19;129598;-40
2023/08/16 13:29:30;;;;;;;77.53;7.43;;;;;;;25.65;65.53;99816.13;7304495;19;129449;-41
2023/08/16 13:31:56;;;;;;;53.00;5.97;;;;;;;25.66;65.61;99807.25;7306930;19;129529;-41
2023/08/16 13:34:22;;;;;;;78.53;7.60;;;;;;;25.63;65.78;99807.56;7307345;19;129691;-41
2023/08/16 13:36:48;;;;;;;101.57;9.20;;;;;;;25.60;65.40;99803.44;7305382;19;129890;-41
2023/08/16 13:39:13;;;;;;;60.57;7.50;;;;;;;25.52;65.99;99781.50;7299351;19;131947;-40
2023/08/16 13:41:39;;;;;;;67.50;7.33;;;;;;;25.60;65.91;99794.72;7277117;19;130725;-39
2023/08/16 13:44:04;;;;;;;71.57;7.93;;;;;;;25.60;65.11;99800.78;7306549;19;129444;-40
2023/08/16 13:46:31;;;;;;;69.57;8.10;;;;;;;25.64;65.60;99793.41;7306699;19;129413;-40
2023/08/16 13:48:56;;;;;;;;;;;;;;;25.66;66.77;99802.81;7307740;19;129803;-40
2023/08/16 13:51:21;;;;;;;109.87;11.23;;;;;;;25.65;66.02;99797.69;7277909;19;129711;-37
2023/08/16 13:53:47;;;;;;;83.57;9.43;;;;;;;25.61;65.84;99799.81;7307589;19;130291;-37
2023/08/16 13:56:12;;;;;;;72.77;9.90;;;;;;;25.58;64.85;99800.13;7302955;19;129162;-36
2023/08/16 13:58:39;;;;;;;96.60;14.47;;;;;;;25.52;65.05;99787.59;7299396;19;131092;-38
2023/08/16 14:01:04;;;;;;;93.65;14.27;;;;;;;25.44;65.33;99781.50;7303273;19;130636;-37
2023/08/16 14:03:30;;;;;;;315.83;27.47;;;;;;;25.60;65.82;99789.47;7285850;19;130579;-36
2023/08/16 14:06:01;;;;;;;153.87;19.90;;;;;;;25.59;66.26;99779.91;7299700;19;130061;-36
2023/08/16 14:08:27;;;;;;;162.43;22.05;;;;;;;25.61;65.11;99789.28;7300342;19;130829;-36
2023/08/16 14:10:55;;;;;;;111.23;18.07;;;;;;;25.64;65.68;99777.59;7263354;19;131358;-36
2023/08/16 14:13:24;;;;;;;132.07;20.35;;;;;;;25.63;65.07;99775.97;7301414;19;130196;-35
2023/08/16 14:16:02;;;;;;;119.57;19.85;;;;;;;25.55;66.00;99768.06;7302984;19;130527;-36
2023/08/16 14:18:28;;;;;;;158.48;22.48;;;;;;;25.61;65.93;99775.28;7301224;19;130080;-37
2023/08/16 14:20:53;;;;;;;135.17;22.43;;;;;;;25.51;64.83;99758.81;7265038;19;130143;-38
2023/08/16 14:23:18;;;;;;;123.20;22.03;;;;;;;25.56;65.61;99769.69;7303430;19;130241;-36
2023/08/16 14:25:52;;;;;;;196.13;26.73;;;;;;;25.62;66.51;99759.34;7302120;19;131331;-37
2023/08/16 14:28:19;;;;;;;112.20;22.50;;;;;;;25.66;65.53;99765.94;7302142;19;130335;-36
2023/08/16 14:30:46;;;;;;;;;;;;;;;25.72;66.75;99768.91;7304074;19;130834;-39
2023/08/16 14:33:15;;;;;;;132.88;22.80;;;;;;;25.73;66.04;99775.81;7266875;19;129732;-38
2023/08/16 14:35:42;;;;;;;243.48;29.95;;;;;;;25.68;65.07;99768.41;7298454;19;132088;-40
2023/08/16 14:38:10;;;;;;;;;;;;;;;25.68;66.37;99760.50;7263443;19;130549;-38
2023/08/16 14:40:35;;;;;;;128.57;21.50;;;;;;;25.68;64.55;99768.41;7295173;19;130211;-36
2023/08/16 14:43:01;;;;;;;326.13;29.57;;;;;;;25.68;65.07;99763.13;7270025;19;129726;-41
2023/08/16 14:45:27;;;;;;;173.73;24.70;;;;;;;25.66;64.93;99770.38;7293155;19;130313;-38
2023/08/16 14:47:52;;;;;;;134.43;21.60;;;;;;;25.67;65.03;99766.75;7299264;19;129533;-36
2023/08/16 14:50:18;;;;;;;114.00;20.10;;;;;;;25.61;65.33;99770.03;7302191;19;130344;-36
2023/08/16 14:52:44;;;;;;;159.57;23.33;;;;;;;25.67;64.94;99770.19;7260007;19;130221;-38
2023/08/16 14:55:09;;;;;;;131.57;20.73;;;;;;;25.73;65.52;99768.75;7297173;19;131384;-37
2023/08/16 14:57:35;;;;;;;125.17;20.70;;;;;;;25.71;65.10;99754.91;7297657;19;130076;-33
2023/08/16 15:00:03;;;;;;;227.48;26.65;;;;;;;25.80;64.41;99766.28;7286920;19;131229;-36
2023/08/16 15:02:28;;;;;;;390.80;32.78;;;;;;;25.72;64.53;99766.28;7264170;19;135799;-33
2023/08/16 15:04:54;;;;;;;416.17;34.97;;;;;;;25.77;64.69;99772.69;7275296;19;129814;-38
2023/08/16 15:07:21;;;;;;;129.33;19.87;;;;;;;25.80;65.22;99779.44;7289073;19;131512;-38
2023/08/16 15:09:47;;;;;;;429.35;34.40;;;;;;;25.80;64.26;99776.81;7283299;19;131135;-38